sensor_id;sensor_type;location;lat;lon;timestamp;pressure;altitude;pressure_sealevel;temperature;humidity
65175;BME280;51761;42.126;24.752;2023-02-26T00:00:12;98598.00;;;11.44;71.51
65175;BME280;51761;42.126;24.752;2023-02-26T00:02:43;98591.63;;;11.43;71.77
65175;BME280;51761;42.126;24.752;2023-02-26T00:05:11;98593.13;;;11.35;72.18
65175;BME280;51761;42.126;24.752;2023-02-26T00:07:37;98589.81;;;11.49;71.34
65175;BME280;51761;42.126;24.752;2023-02-26T00:10:04;98594.53;;;11.40;71.73
65175;BME280;51761;42.126;24.752;2023-02-26T00:12:30;98570.94;;;11.41;71.39
65175;BME280;51761;42.126;24.752;2023-02-26T00:14:56;98566.22;;;11.50;71.51
65175;BME280;51761;42.126;24.752;2023-02-26T00:17:55;98574.38;;;11.57;71.21
65175;BME280;51761;42.126;24.752;2023-02-26T00:20:23;98601.31;;;11.64;71.01
65175;BME280;51761;42.126;24.752;2023-02-26T00:22:49;98578.50;;;11.65;70.72
65175;BME280;51761;42.126;24.752;2023-02-26T00:25:15;98565.88;;;11.61;69.79
65175;BME280;51761;42.126;24.752;2023-02-26T00:27:40;98583.03;;;11.72;69.72
65175;BME280;51761;42.126;24.752;2023-02-26T00:30:07;98599.41;;;11.82;69.91
65175;BME280;51761;42.126;24.752;2023-02-26T00:32:34;98594.16;;;11.84;69.86
65175;BME280;51761;42.126;24.752;2023-02-26T00:35:00;98598.44;;;11.76;70.15
65175;BME280;51761;42.126;24.752;2023-02-26T00:38:01;98589.16;;;11.79;70.17
65175;BME280;51761;42.126;24.752;2023-02-26T00:43:07;98590.97;;;11.95;69.26
65175;BME280;51761;42.126;24.752;2023-02-26T00:45:33;98569.84;;;12.03;68.64
65175;BME280;51761;42.126;24.752;2023-02-26T00:48:30;98591.56;;;11.90;69.30
65175;BME280;51761;42.126;24.752;2023-02-26T00:51:03;98548.91;;;11.77;69.42
65175;BME280;51761;42.126;24.752;2023-02-26T00:56:27;98575.78;;;12.05;68.51
65175;BME280;51761;42.126;24.752;2023-02-26T00:58:52;98563.91;;;11.92;68.13
65175;BME280;51761;42.126;24.752;2023-02-26T01:01:18;98581.00;;;11.94;68.45
65175;BME280;51761;42.126;24.752;2023-02-26T01:03:43;98565.69;;;12.07;67.93
65175;BME280;51761;42.126;24.752;2023-02-26T01:06:11;98569.13;;;12.11;68.17
65175;BME280;51761;42.126;24.752;2023-02-26T01:09:01;98577.22;;;12.09;68.22
65175;BME280;51761;42.126;24.752;2023-02-26T01:11:28;98579.25;;;12.09;68.12
65175;BME280;51761;42.126;24.752;2023-02-26T01:13:54;98558.56;;;12.15;67.18
65175;BME280;51761;42.126;24.752;2023-02-26T01:16:22;98555.47;;;12.44;66.10
65175;BME280;51761;42.126;24.752;2023-02-26T01:18:57;98582.94;;;12.36;66.47
65175;BME280;51761;42.126;24.752;2023-02-26T01:21:31;98584.47;;;12.28;67.02
65175;BME280;51761;42.126;24.752;2023-02-26T01:24:00;98580.78;;;12.40;66.63
65175;BME280;51761;42.126;24.752;2023-02-26T01:26:27;98570.84;;;12.39;66.46
65175;BME280;51761;42.126;24.752;2023-02-26T01:28:53;98555.75;;;12.37;66.24
65175;BME280;51761;42.126;24.752;2023-02-26T01:31:33;98580.03;;;12.40;66.89
65175;BME280;51761;42.126;24.752;2023-02-26T01:34:13;98592.94;;;12.46;66.25
65175;BME280;51761;42.126;24.752;2023-02-26T01:36:44;98603.34;;;12.37;66.86
65175;BME280;51761;42.126;24.752;2023-02-26T01:39:28;98585.75;;;12.36;66.72
65175;BME280;51761;42.126;24.752;2023-02-26T01:42:13;98594.47;;;12.38;66.72
65175;BME280;51761;42.126;24.752;2023-02-26T01:47:16;98581.94;;;12.52;65.92
65175;BME280;51761;42.126;24.752;2023-02-26T01:49:45;98563.84;;;12.44;65.72
65175;BME280;51761;42.126;24.752;2023-02-26T01:55:21;98564.16;;;12.37;65.88
65175;BME280;51761;42.126;24.752;2023-02-26T01:57:48;98587.94;;;12.41;66.57
65175;BME280;51761;42.126;24.752;2023-02-26T02:00:15;98564.06;;;12.19;66.77
65175;BME280;51761;42.126;24.752;2023-02-26T02:02:41;98564.38;;;12.21;66.50
65175;BME280;51761;42.126;24.752;2023-02-26T02:05:13;98562.44;;;12.09;67.44
65175;BME280;51761;42.126;24.752;2023-02-26T02:07:39;98558.84;;;12.08;64.13
65175;BME280;51761;42.126;24.752;2023-02-26T02:10:05;98559.31;;;12.37;65.05
65175;BME280;51761;42.126;24.752;2023-02-26T02:31:04;98567.25;;;12.78;60.05
65175;BME280;51761;42.126;24.752;2023-02-26T02:33:56;98571.41;;;13.13;57.84
65175;BME280;51761;42.126;24.752;2023-02-26T02:36:40;98553.16;;;13.71;53.31
65175;BME280;51761;42.126;24.752;2023-02-26T02:39:12;98568.47;;;14.47;48.96
65175;BME280;51761;42.126;24.752;2023-02-26T02:41:52;98573.28;;;15.12;48.31
65175;BME280;51761;42.126;24.752;2023-02-26T02:44:23;98576.56;;;15.10;49.82
65175;BME280;51761;42.126;24.752;2023-02-26T02:46:53;98557.59;;;14.96;49.57
65175;BME280;51761;42.126;24.752;2023-02-26T02:49:31;98567.41;;;15.01;49.51
65175;BME280;51761;42.126;24.752;2023-02-26T02:52:00;98572.97;;;15.10;48.53
65175;BME280;51761;42.126;24.752;2023-02-26T02:54:39;98577.00;;;15.18;47.93
65175;BME280;51761;42.126;24.752;2023-02-26T02:57:08;98583.31;;;15.36;47.25
65175;BME280;51761;42.126;24.752;2023-02-26T02:59:50;98583.41;;;15.42;47.23
65175;BME280;51761;42.126;24.752;2023-02-26T03:04:52;98594.78;;;15.47;46.60
65175;BME280;51761;42.126;24.752;2023-02-26T03:07:18;98580.25;;;15.49;47.30
65175;BME280;51761;42.126;24.752;2023-02-26T03:09:43;98579.09;;;15.32;48.23
65175;BME280;51761;42.126;24.752;2023-02-26T03:12:09;98582.94;;;15.20;49.24
65175;BME280;51761;42.126;24.752;2023-02-26T03:14:35;98583.47;;;15.09;49.69
65175;BME280;51761;42.126;24.752;2023-02-26T03:17:18;98571.03;;;14.92;51.03
65175;BME280;51761;42.126;24.752;2023-02-26T03:25:13;98572.09;;;14.39;52.88
65175;BME280;51761;42.126;24.752;2023-02-26T03:28:14;98571.19;;;14.33;53.39
65175;BME280;51761;42.126;24.752;2023-02-26T03:31:21;98559.34;;;14.11;54.71
65175;BME280;51761;42.126;24.752;2023-02-26T03:36:24;98526.22;;;13.65;54.94
65175;BME280;51761;42.126;24.752;2023-02-26T03:39:04;98560.19;;;13.76;55.23
65175;BME280;51761;42.126;24.752;2023-02-26T03:41:43;98553.94;;;13.81;55.00
65175;BME280;51761;42.126;24.752;2023-02-26T03:44:15;98533.53;;;13.62;55.83
65175;BME280;51761;42.126;24.752;2023-02-26T03:46:44;98557.25;;;13.61;56.11
65175;BME280;51761;42.126;24.752;2023-02-26T03:49:15;98552.72;;;13.46;56.80
65175;BME280;51761;42.126;24.752;2023-02-26T03:51:42;98571.56;;;13.63;56.76
65175;BME280;51761;42.126;24.752;2023-02-26T03:54:18;98577.34;;;13.42;56.48
65175;BME280;51761;42.126;24.752;2023-02-26T03:56:46;98524.69;;;13.37;56.86
65175;BME280;51761;42.126;24.752;2023-02-26T03:59:13;98531.25;;;13.34;57.50
65175;BME280;51761;42.126;24.752;2023-02-26T04:02:16;98536.19;;;13.30;58.32
65175;BME280;51761;42.126;24.752;2023-02-26T04:04:50;98563.00;;;13.31;58.86
65175;BME280;51761;42.126;24.752;2023-02-26T04:07:17;98547.25;;;13.15;59.18
65175;BME280;51761;42.126;24.752;2023-02-26T04:09:46;98538.53;;;13.04;60.29
65175;BME280;51761;42.126;24.752;2023-02-26T04:12:12;98552.84;;;13.15;60.26
65175;BME280;51761;42.126;24.752;2023-02-26T04:14:37;98541.00;;;13.02;61.02
65175;BME280;51761;42.126;24.752;2023-02-26T04:17:04;98545.69;;;12.96;61.17
65175;BME280;51761;42.126;24.752;2023-02-26T04:19:30;98527.72;;;12.85;61.74
65175;BME280;51761;42.126;24.752;2023-02-26T04:21:56;98529.91;;;12.90;61.67
65175;BME280;51761;42.126;24.752;2023-02-26T04:24:21;98519.94;;;12.80;61.91
65175;BME280;51761;42.126;24.752;2023-02-26T04:26:47;98550.50;;;12.96;61.89
65175;BME280;51761;42.126;24.752;2023-02-26T04:29:13;98540.50;;;12.86;62.09
65175;BME280;51761;42.126;24.752;2023-02-26T04:31:38;98534.41;;;12.87;62.23
65175;BME280;51761;42.126;24.752;2023-02-26T04:34:04;98510.53;;;12.56;62.83
65175;BME280;51761;42.126;24.752;2023-02-26T04:36:30;98517.28;;;12.67;62.94
65175;BME280;51761;42.126;24.752;2023-02-26T04:38:55;98521.16;;;12.70;63.28
65175;BME280;51761;42.126;24.752;2023-02-26T04:41:21;98521.47;;;12.72;63.44
65175;BME280;51761;42.126;24.752;2023-02-26T04:43:46;98488.75;;;12.60;63.52
65175;BME280;51761;42.126;24.752;2023-02-26T04:46:12;98505.44;;;12.63;63.61
65175;BME280;51761;42.126;24.752;2023-02-26T04:48:38;98510.09;;;12.66;63.72
65175;BME280;51761;42.126;24.752;2023-02-26T04:51:03;98520.22;;;12.73;63.67
65175;BME280;51761;42.126;24.752;2023-02-26T04:53:29;98529.53;;;12.61;64.48
65175;BME280;51761;42.126;24.752;2023-02-26T04:55:54;98498.59;;;12.64;64.29
65175;BME280;51761;42.126;24.752;2023-02-26T04:58:20;98530.06;;;12.86;64.07
65175;BME280;51761;42.126;24.752;2023-02-26T05:00:50;98493.81;;;12.92;63.71
65175;BME280;51761;42.126;24.752;2023-02-26T05:03:16;98513.44;;;13.01;63.71
65175;BME280;51761;42.126;24.752;2023-02-26T05:05:42;98517.03;;;13.01;63.86
65175;BME280;51761;42.126;24.752;2023-02-26T05:08:08;98526.06;;;13.05;64.35
65175;BME280;51761;42.126;24.752;2023-02-26T05:10:35;98515.81;;;13.20;64.05
65175;BME280;51761;42.126;24.752;2023-02-26T05:13:00;98504.28;;;13.36;63.56
65175;BME280;51761;42.126;24.752;2023-02-26T05:15:26;98506.16;;;13.48;62.91
65175;BME280;51761;42.126;24.752;2023-02-26T05:17:51;98517.03;;;13.46;63.24
65175;BME280;51761;42.126;24.752;2023-02-26T05:20:17;98542.28;;;13.64;62.49
65175;BME280;51761;42.126;24.752;2023-02-26T05:22:42;98505.19;;;13.60;62.15
65175;BME280;51761;42.126;24.752;2023-02-26T05:25:09;98502.97;;;13.73;61.82
65175;BME280;51761;42.126;24.752;2023-02-26T05:27:36;98515.88;;;13.89;61.35
65175;BME280;51761;42.126;24.752;2023-02-26T05:30:02;98505.78;;;13.82;61.57
65175;BME280;51761;42.126;24.752;2023-02-26T05:32:28;98499.38;;;13.82;61.25
65175;BME280;51761;42.126;24.752;2023-02-26T05:34:53;98524.41;;;14.03;61.04
65175;BME280;51761;42.126;24.752;2023-02-26T05:37:19;98515.72;;;13.92;60.76
65175;BME280;51761;42.126;24.752;2023-02-26T05:39:44;98550.47;;;14.04;60.64
65175;BME280;51761;42.126;24.752;2023-02-26T05:42:10;98544.50;;;14.11;60.63
65175;BME280;51761;42.126;24.752;2023-02-26T05:44:35;98556.38;;;14.06;60.68
65175;BME280;51761;42.126;24.752;2023-02-26T05:47:01;98555.47;;;14.00;61.13
65175;BME280;51761;42.126;24.752;2023-02-26T05:49:27;98533.03;;;13.82;61.48
65175;BME280;51761;42.126;24.752;2023-02-26T05:51:52;98539.44;;;13.82;61.75
65175;BME280;51761;42.126;24.752;2023-02-26T05:54:18;98543.19;;;13.88;61.66
65175;BME280;51761;42.126;24.752;2023-02-26T05:56:44;98567.03;;;13.84;61.79
65175;BME280;51761;42.126;24.752;2023-02-26T05:59:09;98569.84;;;13.84;61.54
65175;BME280;51761;42.126;24.752;2023-02-26T06:01:35;98563.75;;;13.94;61.72
65175;BME280;51761;42.126;24.752;2023-02-26T06:04:05;98561.09;;;14.00;60.62
65175;BME280;51761;42.126;24.752;2023-02-26T06:06:31;98558.75;;;13.98;60.51
65175;BME280;51761;42.126;24.752;2023-02-26T06:08:56;98575.09;;;14.09;60.84
65175;BME280;51761;42.126;24.752;2023-02-26T06:11:22;98579.16;;;14.26;60.08
65175;BME280;51761;42.126;24.752;2023-02-26T06:13:48;98580.03;;;14.40;59.47
65175;BME280;51761;42.126;24.752;2023-02-26T06:16:13;98589.28;;;14.32;59.86
65175;BME280;51761;42.126;24.752;2023-02-26T06:18:39;98585.53;;;14.35;59.55
65175;BME280;51761;42.126;24.752;2023-02-26T06:21:05;98595.31;;;14.48;59.57
65175;BME280;51761;42.126;24.752;2023-02-26T06:23:30;98590.25;;;14.61;58.84
65175;BME280;51761;42.126;24.752;2023-02-26T06:25:56;98585.13;;;14.51;58.71
65175;BME280;51761;42.126;24.752;2023-02-26T06:28:24;98579.91;;;14.67;58.18
65175;BME280;51761;42.126;24.752;2023-02-26T06:30:53;98606.09;;;14.82;57.91
65175;BME280;51761;42.126;24.752;2023-02-26T06:33:19;98595.81;;;14.79;57.83
65175;BME280;51761;42.126;24.752;2023-02-26T06:35:45;98570.22;;;14.77;58.20
65175;BME280;51761;42.126;24.752;2023-02-26T06:38:11;98568.47;;;14.47;55.55
65175;BME280;51761;42.126;24.752;2023-02-26T06:40:36;98574.78;;;14.66;54.52
65175;BME280;51761;42.126;24.752;2023-02-26T06:43:02;98580.50;;;15.04;53.33
65175;BME280;51761;42.126;24.752;2023-02-26T06:45:27;98606.91;;;15.06;54.83
65175;BME280;51761;42.126;24.752;2023-02-26T06:47:53;98565.03;;;15.08;54.62
65175;BME280;51761;42.126;24.752;2023-02-26T06:50:18;98579.31;;;15.19;55.88
65175;BME280;51761;42.126;24.752;2023-02-26T06:52:44;98582.38;;;15.30;55.22
65175;BME280;51761;42.126;24.752;2023-02-26T06:55:09;98580.59;;;15.42;53.49
65175;BME280;51761;42.126;24.752;2023-02-26T06:57:35;98569.28;;;15.51;54.13
65175;BME280;51761;42.126;24.752;2023-02-26T07:00:01;98548.84;;;15.65;53.31
65175;BME280;51761;42.126;24.752;2023-02-26T07:02:27;98575.44;;;15.78;52.68
65175;BME280;51761;42.126;24.752;2023-02-26T07:04:52;98560.69;;;15.83;50.71
65175;BME280;51761;42.126;24.752;2023-02-26T07:07:18;98568.50;;;16.17;49.72
65175;BME280;51761;42.126;24.752;2023-02-26T07:09:44;98582.78;;;16.28;48.45
65175;BME280;51761;42.126;24.752;2023-02-26T07:12:09;98595.13;;;16.74;47.40
65175;BME280;51761;42.126;24.752;2023-02-26T07:14:35;98594.56;;;17.39;45.84
65175;BME280;51761;42.126;24.752;2023-02-26T07:17:01;98581.16;;;17.99;44.03
65175;BME280;51761;42.126;24.752;2023-02-26T07:19:27;98598.25;;;18.92;42.43
65175;BME280;51761;42.126;24.752;2023-02-26T07:21:52;98576.84;;;19.74;40.37
65175;BME280;51761;42.126;24.752;2023-02-26T07:24:20;98609.28;;;20.76;37.36
65175;BME280;51761;42.126;24.752;2023-02-26T07:26:45;98594.81;;;20.63;37.37
65175;BME280;51761;42.126;24.752;2023-02-26T07:29:11;98612.63;;;20.69;37.02
65175;BME280;51761;42.126;24.752;2023-02-26T07:31:37;98606.97;;;21.07;36.08
65175;BME280;51761;42.126;24.752;2023-02-26T07:34:02;98627.09;;;21.14;35.51
65175;BME280;51761;42.126;24.752;2023-02-26T07:36:28;98615.75;;;20.92;36.30
65175;BME280;51761;42.126;24.752;2023-02-26T07:38:54;98609.28;;;21.08;36.49
65175;BME280;51761;42.126;24.752;2023-02-26T07:41:19;98604.59;;;21.38;35.59
65175;BME280;51761;42.126;24.752;2023-02-26T07:43:45;98614.34;;;21.54;34.85
65175;BME280;51761;42.126;24.752;2023-02-26T07:46:11;98603.25;;;21.56;34.96
65175;BME280;51761;42.126;24.752;2023-02-26T07:48:36;98611.00;;;21.55;35.15
65175;BME280;51761;42.126;24.752;2023-02-26T07:51:02;98588.09;;;21.31;34.42
65175;BME280;51761;42.126;24.752;2023-02-26T07:53:27;98586.78;;;21.32;35.27
65175;BME280;51761;42.126;24.752;2023-02-26T07:55:53;98575.94;;;21.25;34.82
65175;BME280;51761;42.126;24.752;2023-02-26T07:58:18;98566.97;;;21.05;34.92
65175;BME280;51761;42.126;24.752;2023-02-26T08:00:44;98595.34;;;21.10;35.18
65175;BME280;51761;42.126;24.752;2023-02-26T08:03:09;98594.56;;;21.15;34.98
65175;BME280;51761;42.126;24.752;2023-02-26T08:05:35;98597.66;;;21.23;35.03
65175;BME280;51761;42.126;24.752;2023-02-26T08:08:01;98590.91;;;21.37;34.75
65175;BME280;51761;42.126;24.752;2023-02-26T08:10:28;98592.13;;;21.52;34.52
65175;BME280;51761;42.126;24.752;2023-02-26T08:12:53;98582.06;;;21.51;34.29
65175;BME280;51761;42.126;24.752;2023-02-26T08:15:19;98573.50;;;21.73;34.26
65175;BME280;51761;42.126;24.752;2023-02-26T08:17:44;98592.41;;;21.65;34.41
65175;BME280;51761;42.126;24.752;2023-02-26T08:20:10;98589.50;;;21.76;33.80
65175;BME280;51761;42.126;24.752;2023-02-26T08:22:36;98593.63;;;21.75;33.69
65175;BME280;51761;42.126;24.752;2023-02-26T08:25:03;98603.75;;;21.65;33.24
65175;BME280;51761;42.126;24.752;2023-02-26T08:27:28;98582.63;;;21.39;32.89
65175;BME280;51761;42.126;24.752;2023-02-26T08:29:54;98592.44;;;21.49;33.79
65175;BME280;51761;42.126;24.752;2023-02-26T08:32:19;98576.69;;;21.37;34.14
65175;BME280;51761;42.126;24.752;2023-02-26T08:34:47;98597.88;;;21.41;34.27
65175;BME280;51761;42.126;24.752;2023-02-26T08:37:13;98580.50;;;21.56;34.62
65175;BME280;51761;42.126;24.752;2023-02-26T08:39:38;98562.16;;;21.57;33.82
65175;BME280;51761;42.126;24.752;2023-02-26T08:42:08;98570.88;;;21.81;33.62
65175;BME280;51761;42.126;24.752;2023-02-26T08:44:34;98565.75;;;21.74;33.94
65175;BME280;51761;42.126;24.752;2023-02-26T08:47:00;98589.72;;;21.89;33.67
65175;BME280;51761;42.126;24.752;2023-02-26T08:49:25;98562.91;;;21.74;33.68
65175;BME280;51761;42.126;24.752;2023-02-26T08:51:51;98577.75;;;22.02;33.71
65175;BME280;51761;42.126;24.752;2023-02-26T08:54:16;98580.44;;;22.29;32.42
65175;BME280;51761;42.126;24.752;2023-02-26T08:56:42;98572.59;;;22.46;31.85
65175;BME280;51761;42.126;24.752;2023-02-26T08:59:07;98569.16;;;22.82;31.90
65175;BME280;51761;42.126;24.752;2023-02-26T09:01:34;98559.28;;;22.89;31.26
65175;BME280;51761;42.126;24.752;2023-02-26T09:04:00;98565.28;;;22.85;30.75
65175;BME280;51761;42.126;24.752;2023-02-26T09:06:26;98576.72;;;22.80;30.60
65175;BME280;51761;42.126;24.752;2023-02-26T09:08:51;98580.19;;;22.67;31.51
65175;BME280;51761;42.126;24.752;2023-02-26T09:11:17;98578.50;;;22.83;31.32
65175;BME280;51761;42.126;24.752;2023-02-26T09:13:42;98566.13;;;23.34;30.71
65175;BME280;51761;42.126;24.752;2023-02-26T09:16:08;98585.06;;;23.98;29.67
65175;BME280;51761;42.126;24.752;2023-02-26T09:18:33;98578.88;;;24.49;29.17
65175;BME280;51761;42.126;24.752;2023-02-26T09:20:59;98590.75;;;24.34;29.21
65175;BME280;51761;42.126;24.752;2023-02-26T09:23:25;98594.53;;;24.24;28.96
65175;BME280;51761;42.126;24.752;2023-02-26T09:25:52;98561.72;;;23.99;29.01
65175;BME280;51761;42.126;24.752;2023-02-26T09:28:18;98574.22;;;24.83;28.50
65175;BME280;51761;42.126;24.752;2023-02-26T09:30:44;98552.34;;;24.85;28.21
65175;BME280;51761;42.126;24.752;2023-02-26T09:33:09;98563.69;;;24.41;28.32
65175;BME280;51761;42.126;24.752;2023-02-26T09:35:35;98581.59;;;24.05;28.76
65175;BME280;51761;42.126;24.752;2023-02-26T09:38:01;98572.91;;;23.97;29.04
65175;BME280;51761;42.126;24.752;2023-02-26T09:46:03;98571.44;;;24.77;28.21
65175;BME280;51761;42.126;24.752;2023-02-26T09:48:30;98577.81;;;24.83;27.57
65175;BME280;51761;42.126;24.752;2023-02-26T09:50:58;98567.81;;;25.21;28.27
65175;BME280;51761;42.126;24.752;2023-02-26T09:53:33;98573.41;;;25.14;26.98
65175;BME280;51761;42.126;24.752;2023-02-26T09:56:16;98532.78;;;25.21;26.68
65175;BME280;51761;42.126;24.752;2023-02-26T09:58:43;98560.38;;;25.44;25.87
65175;BME280;51761;42.126;24.752;2023-02-26T10:03:51;98555.53;;;25.65;26.08
65175;BME280;51761;42.126;24.752;2023-02-26T10:19:55;98559.78;;;24.75;25.93
65175;BME280;51761;42.126;24.752;2023-02-26T10:22:43;98551.41;;;24.46;26.01
65175;BME280;51761;42.126;24.752;2023-02-26T10:33:02;98543.66;;;24.10;26.69
65175;BME280;51761;42.126;24.752;2023-02-26T10:35:36;98557.22;;;24.04;26.87
65175;BME280;51761;42.126;24.752;2023-02-26T10:38:10;98564.94;;;24.09;26.70
65175;BME280;51761;42.126;24.752;2023-02-26T10:40:42;98543.88;;;23.93;26.52
65175;BME280;51761;42.126;24.752;2023-02-26T10:48:34;98530.72;;;23.48;27.04
65175;BME280;51761;42.126;24.752;2023-02-26T10:51:24;98517.72;;;23.71;26.79
65175;BME280;51761;42.126;24.752;2023-02-26T10:53:58;98553.97;;;23.52;27.87
65175;BME280;51761;42.126;24.752;2023-02-26T10:56:32;98533.66;;;23.85;27.90
65175;BME280;51761;42.126;24.752;2023-02-26T10:58:58;98541.22;;;23.77;27.25
65175;BME280;51761;42.126;24.752;2023-02-26T11:01:26;98532.41;;;23.08;27.60
65175;BME280;51761;42.126;24.752;2023-02-26T11:04:00;98523.63;;;23.12;27.97
65175;BME280;51761;42.126;24.752;2023-02-26T11:06:33;98515.78;;;23.18;27.90
65175;BME280;51761;42.126;24.752;2023-02-26T11:09:00;98497.97;;;23.36;27.71
65175;BME280;51761;42.126;24.752;2023-02-26T11:11:45;98510.78;;;23.24;27.37
65175;BME280;51761;42.126;24.752;2023-02-26T11:14:10;98508.69;;;23.00;27.71
65175;BME280;51761;42.126;24.752;2023-02-26T11:16:45;98510.00;;;22.99;27.80
65175;BME280;51761;42.126;24.752;2023-02-26T11:19:13;98498.38;;;22.97;27.82
65175;BME280;51761;42.126;24.752;2023-02-26T11:21:40;98512.09;;;22.99;27.82
65175;BME280;51761;42.126;24.752;2023-02-26T11:24:13;98470.69;;;22.74;28.07
65175;BME280;51761;42.126;24.752;2023-02-26T11:26:43;98487.75;;;22.74;27.83
65175;BME280;51761;42.126;24.752;2023-02-26T11:29:17;98512.22;;;22.58;28.42
65175;BME280;51761;42.126;24.752;2023-02-26T11:31:47;98509.47;;;22.77;28.59
65175;BME280;51761;42.126;24.752;2023-02-26T11:34:14;98487.53;;;22.72;28.60
65175;BME280;51761;42.126;24.752;2023-02-26T11:36:41;98490.84;;;23.00;29.19
65175;BME280;51761;42.126;24.752;2023-02-26T11:41:40;98482.13;;;22.92;29.56
65175;BME280;51761;42.126;24.752;2023-02-26T11:44:16;98481.81;;;22.96;29.52
65175;BME280;51761;42.126;24.752;2023-02-26T11:46:45;98475.53;;;22.79;30.07
65175;BME280;51761;42.126;24.752;2023-02-26T11:49:16;98478.34;;;22.55;30.06
65175;BME280;51761;42.126;24.752;2023-02-26T11:51:45;98510.81;;;22.36;30.74
65175;BME280;51761;42.126;24.752;2023-02-26T11:54:22;98474.13;;;22.32;30.71
65175;BME280;51761;42.126;24.752;2023-02-26T11:56:49;98458.25;;;22.48;31.09
65175;BME280;51761;42.126;24.752;2023-02-26T11:59:23;98451.81;;;22.71;30.91
65175;BME280;51761;42.126;24.752;2023-02-26T12:01:50;98477.09;;;23.28;30.26
65175;BME280;51761;42.126;24.752;2023-02-26T12:04:22;98461.72;;;23.55;29.53
65175;BME280;51761;42.126;24.752;2023-02-26T12:06:51;98445.38;;;23.37;29.73
65175;BME280;51761;42.126;24.752;2023-02-26T12:09:17;98452.38;;;23.36;29.96
65175;BME280;51761;42.126;24.752;2023-02-26T12:14:52;98458.59;;;23.16;29.83
65175;BME280;51761;42.126;24.752;2023-02-26T12:25:22;98486.09;;;22.84;30.18
65175;BME280;51761;42.126;24.752;2023-02-26T12:36:08;98472.91;;;22.57;28.44
65175;BME280;51761;42.126;24.752;2023-02-26T12:38:58;98467.81;;;22.50;27.80
65175;BME280;51761;42.126;24.752;2023-02-26T12:50:02;98439.69;;;22.65;28.39
65175;BME280;51761;42.126;24.752;2023-02-26T12:52:50;98435.56;;;22.37;29.04
65175;BME280;51761;42.126;24.752;2023-02-26T12:55:35;98423.75;;;21.98;28.89
65175;BME280;51761;42.126;24.752;2023-02-26T13:09:31;98480.53;;;21.68;29.58
65175;BME280;51761;42.126;24.752;2023-02-26T13:19:49;98490.16;;;21.49;29.55
65175;BME280;51761;42.126;24.752;2023-02-26T13:22:25;98473.19;;;21.32;29.98
65175;BME280;51761;42.126;24.752;2023-02-26T13:27:33;98487.16;;;21.19;30.97
65175;BME280;51761;42.126;24.752;2023-02-26T13:32:38;98502.47;;;21.05;32.17
65175;BME280;51761;42.126;24.752;2023-02-26T13:35:58;98497.03;;;20.96;32.60
65175;BME280;51761;42.126;24.752;2023-02-26T13:38:27;98504.00;;;21.06;32.53
65175;BME280;51761;42.126;24.752;2023-02-26T13:47:10;98530.84;;;20.94;33.09
65175;BME280;51761;42.126;24.752;2023-02-26T13:53:01;98538.59;;;20.88;32.93
65175;BME280;51761;42.126;24.752;2023-02-26T13:55:45;98516.16;;;20.90;33.05
65175;BME280;51761;42.126;24.752;2023-02-26T14:16:28;98542.22;;;20.84;32.42
65175;BME280;51761;42.126;24.752;2023-02-26T14:19:04;98543.75;;;20.95;32.50
65175;BME280;51761;42.126;24.752;2023-02-26T14:23:57;98563.88;;;20.87;32.75
65175;BME280;51761;42.126;24.752;2023-02-26T14:26:27;98567.25;;;20.85;32.63
65175;BME280;51761;42.126;24.752;2023-02-26T14:28:56;98547.38;;;20.58;33.05
65175;BME280;51761;42.126;24.752;2023-02-26T14:31:24;98565.69;;;20.62;32.65
65175;BME280;51761;42.126;24.752;2023-02-26T14:36:47;98569.28;;;20.68;32.34
65175;BME280;51761;42.126;24.752;2023-02-26T14:41:54;98559.75;;;20.60;32.66
65175;BME280;51761;42.126;24.752;2023-02-26T14:44:26;98564.13;;;20.50;32.85
65175;BME280;51761;42.126;24.752;2023-02-26T14:46:52;98567.25;;;20.47;33.38
65175;BME280;51761;42.126;24.752;2023-02-26T14:49:32;98557.94;;;20.46;33.09
65175;BME280;51761;42.126;24.752;2023-02-26T14:57:40;98582.41;;;20.27;34.00
65175;BME280;51761;42.126;24.752;2023-02-26T15:00:29;98581.16;;;20.28;34.21
65175;BME280;51761;42.126;24.752;2023-02-26T15:17:17;98601.97;;;20.14;35.01
65175;BME280;51761;42.126;24.752;2023-02-26T15:24:48;98617.91;;;20.01;34.68
65175;BME280;51761;42.126;24.752;2023-02-26T15:27:17;98625.66;;;20.06;34.80
65175;BME280;51761;42.126;24.752;2023-02-26T15:29:45;98600.34;;;19.97;34.28
65175;BME280;51761;42.126;24.752;2023-02-26T15:32:21;98610.75;;;20.22;34.54
65175;BME280;51761;42.126;24.752;2023-02-26T15:35:16;98618.97;;;20.09;34.87
65175;BME280;51761;42.126;24.752;2023-02-26T15:37:42;98600.59;;;19.93;34.93
65175;BME280;51761;42.126;24.752;2023-02-26T15:40:08;98629.00;;;20.04;34.61
65175;BME280;51761;42.126;24.752;2023-02-26T15:42:37;98642.44;;;20.15;34.31
65175;BME280;51761;42.126;24.752;2023-02-26T15:45:11;98637.03;;;20.17;34.43
65175;BME280;51761;42.126;24.752;2023-02-26T15:47:38;98627.22;;;20.01;34.57
65175;BME280;51761;42.126;24.752;2023-02-26T15:50:04;98644.47;;;20.03;35.11
65175;BME280;51761;42.126;24.752;2023-02-26T15:52:32;98642.06;;;19.96;35.37
65175;BME280;51761;42.126;24.752;2023-02-26T15:55:02;98637.66;;;19.84;35.55
65175;BME280;51761;42.126;24.752;2023-02-26T15:57:29;98668.09;;;19.95;35.65
65175;BME280;51761;42.126;24.752;2023-02-26T16:00:11;98664.16;;;19.76;36.50
65175;BME280;51761;42.126;24.752;2023-02-26T16:02:41;98666.69;;;19.68;36.72
65175;BME280;51761;42.126;24.752;2023-02-26T16:05:07;98680.28;;;19.59;37.12
65175;BME280;51761;42.126;24.752;2023-02-26T16:07:33;98690.94;;;19.38;36.86
65175;BME280;51761;42.126;24.752;2023-02-26T16:10:04;98685.84;;;19.42;36.93
65175;BME280;51761;42.126;24.752;2023-02-26T16:12:37;98685.59;;;19.46;37.14